Weather at Campo di Volo Pontinia Eagles

Public forecast

Using degrees Celsius for public forecast. Weather courtesy of forecast.io.

Closest aviation weather report (METAR) to Campo di Volo Pontinia Eagles

Closest report is Latina Air Base, 14.4 nm (26.7 km) NW.

2024/07/18 15:55 (retrieved 1 hour ago)

LIRL 181555Z /////KT CAVOK 35/20 Q1015 RMK SKC MON LIB NC VIS MIN 9999 WIND THR12 /////KT WIND THR30 26008KT BLU

Closest aviation forecast (TAF) to Campo di Volo Pontinia Eagles

Closest forecast is Ciampino–G. B. Pastine International Airport, 35.3 nm (65.4 km) NW.

2024/07/18 12:25 (retrieved 5 hours ago)

TAF LIRA 181100Z 1812/1912 26012KT CAVOK BECMG 1818/1820 VRB05KT BECMG 1910/1912 26012KT